메인 페이지
METAR-TAF:

METAR-TAF

공항 :

베드포드, 매사추세츠, 미국

위도: 42-28-06N, 경도: 071-17-40W, 고도: 40m

현재 날씨관측

예보는 16분 전, 09:09시(UTC)에 발표되었습니다.
무풍
온도 13°C
습도 94%
기압 1006 hPa
시정: 0.4km
안개

METAR: KBED 040909Z AUTO 00000KT 1/4SM R11/1200VP6000FT FG VV002 13/12 A2972 RMK AO2 T01330122 PNO

시각: 05:25 (09:25 UTC)

예보

예보는 1 시간 0분 전, 08:25시(UTC)에 발표되었습니다.
예보 대상 시간: 04일 08시부터 05일 06시까지 (UTC)
kt
시정: 1.2km
고도 300ft 상공
박무
04일 1030시부터 (UTC)
3kt
시정: 10km
고도 25000ft 상공 구름 조금
04일 1430시부터 (UTC)
서남서7kt
시정: 10km
고도 25000ft 상공 구름 조금
05일 0000시부터 (UTC)
남남서3kt
시정: 10km
고도 15000ft 상공 구름 보통

TAF: KBED 040825Z 0408/0506 00000KT 3/4SM BR VV003 FM041030 27003KT P6SM FEW250 FM041430 24007KT P6SM FEW250 FM050000 20003KT P6SM SCT150

4,000개 이상의 공항 관측 자료 및 예보 (METAR 및 TAF 보고).

지도상에서 검색 가능한 기상관측소가 노란 점과 빨간 점으로 표시되어 있습니다.

기상관측소 명을 보려면 표시 위로 마우스를 이동하세요.

날씨 관측과 예보를 보려면 클릭하세요.

지도 변경 : 확대하려면 엑스 표시가 있는 녹색 버튼, 축소하려면 빼기 표시가 있는 녹색 버튼, 다음 페이지의 지도를 보려면 녹색 화살표를 클릭하세요.


METAR-TAF: